Time;durP1;ratioP1;P1;durP2;ratioP2;P2;SDS_P1;SDS_P2;PMS_P1;PMS_P2;Temp;Humidity;BMP_temperature;BMP_pressure;BME280_temperature;BME280_humidity;BME280_pressure;Samples;Min_cycle;Max_cycle;Signal;HPM_P1;HPM_P2
2021/09/25 00:00:34;;;;;;;6.57;5.47;;;;;;;13.34;78.87;99633.53;4985201;28;20229;-87
2021/09/25 00:03:03;;;;;;;6.40;5.80;;;;;;;13.30;78.56;99629.66;4985527;28;20321;-87
2021/09/25 00:05:36;;;;;;;6.50;5.60;;;;;;;13.35;78.56;99631.63;4985148;28;20263;-86
2021/09/25 00:08:04;;;;;;;6.17;5.60;;;;;;;13.31;78.63;99630.47;5000994;28;20231;-88
2021/09/25 00:10:31;;;;;;;6.10;5.50;;;;;;;13.25;78.40;99623.38;4984720;28;20529;-85
2021/09/25 00:12:58;;;;;;;6.37;5.77;;;;;;;13.27;78.76;99622.06;4985354;28;20251;-84
2021/09/25 00:15:29;;;;;;;5.90;5.40;;;;;;;13.35;78.56;99637.84;4985023;28;20252;-85
2021/09/25 00:17:57;;;;;;;5.80;5.30;;;;;;;13.32;78.69;99632.94;5001582;28;20237;-89
2021/09/25 00:20:25;;;;;;;6.37;5.67;;;;;;;13.28;79.07;99626.41;4984535;28;20253;-87
2021/09/25 00:22:52;;;;;;;8.10;5.10;;;;;;;13.31;79.40;99631.31;4985387;28;20646;-87
2021/09/25 00:25:19;;;;;;;6.00;5.50;;;;;;;13.31;79.46;99639.38;5001099;28;20231;-89
2021/09/25 00:27:45;;;;;;;5.60;5.10;;;;;;;13.25;79.11;99631.44;4984859;28;20249;-89
2021/09/25 00:30:13;;;;;;;6.67;6.00;;;;;;;13.20;79.44;99630.25;5017666;28;20227;-87
2021/09/25 00:32:40;;;;;;;6.10;5.50;;;;;;;13.23;79.26;99629.81;5015868;28;20264;-87
2021/09/25 00:35:09;;;;;;;6.37;5.67;;;;;;;13.29;79.24;99636.13;5018289;28;20257;-87
2021/09/25 00:37:37;;;;;;;6.03;5.53;;;;;;;13.24;79.29;99627.94;5001944;28;20658;-86
2021/09/25 00:40:05;;;;;;;6.40;5.50;;;;;;;13.28;79.06;99620.19;5002684;28;20227;-88
2021/09/25 00:42:32;;;;;;;7.13;6.00;;;;;;;13.20;78.99;99622.19;5019930;28;20228;-86
2021/09/25 00:44:59;;;;;;;5.83;5.33;;;;;;;13.25;79.38;99626.84;5002198;28;20231;-87
2021/09/25 00:47:25;;;;;;;6.00;5.50;;;;;;;13.24;79.36;99633.31;4984700;28;20318;-85
2021/09/25 00:49:52;;;;;;;6.03;5.53;;;;;;;13.27;78.97;99638.22;5018000;28;20253;-87
2021/09/25 00:52:19;;;;;;;6.47;5.60;;;;;;;13.26;79.01;99631.19;4984071;28;20631;-88
2021/09/25 00:54:46;;;;;;;5.77;5.30;;;;;;;13.18;79.08;99618.13;4984241;28;20290;-87
2021/09/25 00:57:13;;;;;;;6.40;5.80;;;;;;;13.20;79.21;99632.94;5017740;28;20234;-85
2021/09/25 00:59:41;;;;;;;6.43;5.50;;;;;;;13.18;79.17;99627.00;4984333;28;20298;-90
2021/09/25 01:02:10;;;;;;;6.17;5.60;;;;;;;13.15;78.97;99616.72;4998063;28;20980;-88
2021/09/25 01:04:38;;;;;;;6.40;5.57;;;;;;;13.21;78.97;99615.75;4998981;28;20233;-87
2021/09/25 01:07:05;;;;;;;5.80;5.20;;;;;;;13.22;78.84;99611.19;4981906;28;20235;-84
2021/09/25 01:09:32;;;;;;;7.13;5.27;;;;;;;13.22;78.86;99611.19;4981861;28;20238;-85
2021/09/25 01:11:58;;;;;;;6.60;5.90;;;;;;;13.19;79.01;99617.06;4965322;28;20654;-87
2021/09/25 01:14:29;;;;;;;5.70;5.20;;;;;;;13.17;78.89;99613.78;4965226;28;20235;-87
2021/09/25 01:17:05;;;;;;;6.40;5.73;;;;;;;13.15;79.06;99619.41;4998127;28;20318;-87
2021/09/25 01:19:32;;;;;;;6.37;5.47;;;;;;;13.06;79.05;99612.72;4982180;28;20228;-87
2021/09/25 01:21:59;;;;;;;6.00;5.27;;;;;;;13.04;79.36;99603.25;4982184;28;20243;-84
2021/09/25 01:24:26;;;;;;;5.90;5.30;;;;;;;13.06;79.22;99610.03;4981783;28;20259;-88
2021/09/25 01:26:56;;;;;;;6.17;5.57;;;;;;;13.01;79.39;99617.19;4986585;28;20239;-84
2021/09/25 01:29:24;;;;;;;5.93;5.33;;;;;;;12.99;79.67;99617.41;4988162;28;20238;-83
2021/09/25 01:32:02;;;;;;;5.77;5.20;;;;;;;13.03;79.63;99615.06;4988588;28;20349;-80
2021/09/25 01:34:36;;;;;;;6.00;5.30;;;;;;;13.04;79.76;99624.75;5053572;23;20257;-80
2021/09/25 01:38:18;;;;;;;6.43;5.83;;;;;;;13.00;79.85;99620.91;5054569;28;20239;-79
2021/09/25 01:41:40;;;;;;;5.83;5.23;;;;;;;12.99;79.81;99621.97;5051549;28;20318;-81
2021/09/25 01:44:26;;;;;;;5.70;5.20;;;;;;;13.02;79.76;99624.16;5052346;28;20233;-84
2021/09/25 01:47:10;;;;;;;5.90;5.40;;;;;;;13.05;79.36;99626.41;5051354;28;20231;-80
2021/09/25 01:50:16;;;;;;;6.20;5.53;;;;;;;13.04;79.12;99616.69;5075970;22;20237;-80
2021/09/25 01:52:47;;;;;;;6.10;5.50;;;;;;;13.01;79.40;99615.31;5068845;28;20227;-81
2021/09/25 01:55:17;;;;;;;5.97;5.47;;;;;;;13.00;79.28;99605.59;5064618;28;20321;-86
2021/09/25 01:57:51;;;;;;;6.43;5.60;;;;;;;13.06;78.53;99618.13;5067323;28;20229;-82
2021/09/25 02:00:34;;;;;;;6.03;5.53;;;;;;;13.05;78.91;99618.34;5086324;22;20226;-81
2021/09/25 02:03:12;;;;;;;7.40;5.57;;;;;;;13.01;78.41;99620.69;5067377;28;20230;-84
2021/09/25 02:06:00;;;;;;;6.13;5.53;;;;;;;13.04;78.30;99624.75;5071381;28;20628;-82
2021/09/25 02:08:42;;;;;;;5.83;5.33;;;;;;;12.95;78.41;99610.03;5071837;28;20288;-81
2021/09/25 02:11:20;;;;;;;5.90;5.40;;;;;;;13.06;77.96;99625.38;5055378;28;20224;-80
2021/09/25 02:14:20;;;;;;;5.93;5.10;;;;;;;13.06;78.19;99625.38;5060370;23;20237;-81
2021/09/25 02:17:11;;;;;;;5.80;5.30;;;;;;;13.04;77.85;99620.22;5071778;28;20225;-80
2021/09/25 02:19:50;;;;;;;7.00;5.20;;;;;;;13.05;77.92;99621.03;5064266;23;20232;-81
2021/09/25 02:22:57;;;;;;;6.00;5.40;;;;;;;13.00;78.06;99618.22;5079809;22;20231;-80
2021/09/25 02:26:15;;;;;;;5.77;5.27;;;;;;;13.04;78.37;99627.47;5099728;22;20240;-81
2021/09/25 02:29:09;;;;;;;7.77;5.57;;;;;;;13.03;77.65;99626.63;5072050;28;20232;-79
2021/09/25 02:32:27;;;;;;;6.57;5.37;;;;;;;12.96;77.99;99619.75;5085690;22;20216;-79
2021/09/25 02:35:40;;;;;;;5.70;5.10;;;;;;;12.95;77.80;99618.09;5072965;28;20229;-79
2021/09/25 02:38:31;;;;;;;5.87;5.27;;;;;;;12.97;77.76;99624.88;5067143;22;20234;-79
2021/09/25 02:41:25;;;;;;;6.00;5.50;;;;;;;12.98;77.38;99623.00;5067103;22;20294;-78
2021/09/25 02:44:29;;;;;;;5.73;5.23;;;;;;;12.95;77.60;99624.31;5045961;23;20297;-78
2021/09/25 02:50:38;;;;;;;5.27;4.77;;;;;;;12.93;77.38;99628.28;5067971;22;20237;-79
2021/09/25 02:53:43;;;;;;;6.13;5.13;;;;;;;12.93;77.42;99637.16;5044028;22;20213;-79
2021/09/25 02:56:13;;;;;;;5.80;5.30;;;;;;;12.94;77.15;99636.13;5079889;23;20205;-79
2021/09/25 02:59:08;;;;;;;5.70;5.20;;;;;;;12.84;77.63;99643.94;5072480;23;20230;-79
2021/09/25 03:02:00;;;;;;;5.60;5.10;;;;;;;12.83;77.43;99641.50;5064663;22;20226;-79
2021/09/25 03:04:38;;;;;;;9.43;5.13;;;;;;;12.78;77.26;99642.22;5141998;23;20572;-78
2021/09/25 03:07:21;;;;;;;5.33;4.87;;;;;;;12.74;77.43;99641.00;5049106;22;20222;-79
2021/09/25 03:10:27;;;;;;;6.50;5.27;;;;;;;12.75;77.50;99653.41;5085230;22;20221;-79
2021/09/25 03:12:59;;;;;;;5.83;4.90;;;;;;;12.71;77.67;99649.56;5079009;23;20236;-79
2021/09/25 03:16:34;;;;;;;6.93;5.17;;;;;;;12.70;77.23;99658.66;5081575;22;20248;-78
2021/09/25 03:19:28;;;;;;;5.40;4.83;;;;;;;12.60;77.35;99647.66;5152890;23;20232;-79
2021/09/25 03:22:15;;;;;;;5.63;5.10;;;;;;;12.63;77.44;99650.72;5068040;22;20255;-79
2021/09/25 03:25:09;;;;;;;4.80;4.40;;;;;;;12.59;77.25;99648.75;5067767;23;20334;-78
2021/09/25 03:28:11;;;;;;;5.30;4.80;;;;;;;12.55;77.54;99650.25;5015863;28;20220;-79
2021/09/25 03:30:55;;;;;;;4.83;4.43;;;;;;;12.52;77.38;99648.00;5018481;28;20202;-79
2021/09/25 03:33:54;;;;;;;5.47;4.90;;;;;;;12.50;77.43;99642.88;5049401;22;20268;-79
2021/09/25 03:37:36;;;;;;;5.23;4.80;;;;;;;12.56;77.05;99658.06;5058416;28;20278;-79
2021/09/25 03:40:17;;;;;;;5.20;4.80;;;;;;;12.47;77.10;99640.63;5065360;23;20257;-79
2021/09/25 03:43:24;;;;;;;6.10;4.67;;;;;;;12.55;77.16;99658.31;5082998;22;20221;-79
2021/09/25 03:46:14;;;;;;;5.77;5.17;;;;;;;12.41;76.87;99638.09;5056423;23;20229;-79
2021/09/25 03:49:54;;;;;;;5.40;4.83;;;;;;;12.51;76.93;99652.56;5231093;23;20300;-78
2021/09/25 03:53:14;;;;;;;5.37;4.87;;;;;;;12.46;77.26;99655.13;5059158;22;20225;-80
2021/09/25 03:56:07;;;;;;;5.27;4.80;;;;;;;12.42;77.16;99639.69;5068254;22;20227;-79
2021/09/25 03:59:20;;;;;;;5.43;4.97;;;;;;;12.42;77.00;99645.06;5013051;23;20234;-78
2021/09/25 04:02:12;;;;;;;5.50;4.93;;;;;;;12.46;77.41;99651.66;5171902;22;20236;-79
2021/09/25 04:05:34;;;;;;;5.20;4.77;;;;;;;12.46;77.01;99654.34;5043814;22;20334;-78
2021/09/25 04:12:08;;;;;;;5.07;4.63;;;;;;;12.35;77.16;99640.63;5060577;23;20225;-78
2021/09/25 04:15:14;;;;;;;5.80;5.07;;;;;;;12.38;77.05;99652.78;5077017;28;20221;-78
2021/09/25 04:18:59;;;;;;;5.27;4.77;;;;;;;12.35;77.38;99653.25;5081996;22;20221;-79
2021/09/25 04:22:04;;;;;;;11.00;8.23;;;;;;;12.12;77.63;99619.09;5103051;22;20225;-79
2021/09/25 04:25:31;;;;;;;10.73;7.90;;;;;;;12.29;77.40;99649.59;5075076;28;20233;-79
2021/09/25 04:29:17;;;;;;;5.93;5.40;;;;;;;12.26;77.52;99647.41;5151726;22;20212;-79
2021/09/25 04:32:18;;;;;;;6.57;5.10;;;;;;;12.19;77.38;99637.78;5082154;23;20225;-79
2021/09/25 04:35:14;;;;;;;5.53;5.03;;;;;;;12.09;77.71;99626.78;5095502;22;20284;-79
2021/09/25 04:38:17;;;;;;;5.27;4.77;;;;;;;12.21;77.75;99660.69;5080771;22;20312;-78
2021/09/25 04:41:16;;;;;;;5.70;5.20;;;;;;;12.13;77.45;99649.47;5061851;23;20288;-79
2021/09/25 04:44:44;;;;;;;5.80;5.30;;;;;;;12.15;77.65;99641.97;5008556;22;20215;-79
2021/09/25 04:48:50;;;;;;;5.20;4.70;;;;;;;12.27;77.60;99667.03;5063078;22;20234;-78
2021/09/25 04:52:12;;;;;;;5.00;4.50;;;;;;;12.28;77.75;99663.25;5030719;23;20223;31
2021/09/25 04:56:03;;;;;;;5.70;4.63;;;;;;;12.33;77.30;99663.41;4975941;29;20252;-80
2021/09/25 04:59:15;;;;;;;4.87;4.47;;;;;;;12.35;77.24;99658.63;4963220;29;20223;-78
2021/09/25 05:02:07;;;;;;;7.20;4.80;;;;;;;12.39;77.22;99665.16;5041292;23;20210;-79
2021/09/25 05:04:55;;;;;;;5.30;4.80;;;;;;;12.31;77.53;99654.75;5063234;23;20249;-78
2021/09/25 05:08:24;;;;;;;5.67;5.17;;;;;;;12.43;77.55;99671.72;5064535;22;20288;-78
2021/09/25 05:11:27;;;;;;;6.00;5.20;;;;;;;12.48;77.25;99671.84;5073324;23;20251;-78
2021/09/25 05:14:18;;;;;;;5.33;4.83;;;;;;;12.55;76.97;99669.06;5107572;23;20251;-79
2021/09/25 05:17:36;;;;;;;5.33;4.80;;;;;;;12.65;76.75;99675.50;5107400;23;20221;-79
2021/09/25 05:20:46;;;;;;;6.37;4.67;;;;;;;12.67;76.35;99659.13;5098723;28;20208;-78
2021/09/25 05:23:49;;;;;;;5.67;4.87;;;;;;;12.86;76.33;99676.81;5099604;28;20149;-78
2021/09/25 05:27:34;;;;;;;5.50;5.00;;;;;;;13.00;75.79;99672.84;5100267;23;20228;-78
2021/09/25 05:30:19;;;;;;;5.23;4.73;;;;;;;13.09;75.44;99666.06;5079547;22;20285;-79
2021/09/25 05:33:16;;;;;;;5.27;4.80;;;;;;;13.22;74.12;99675.78;5067889;23;20214;-79
2021/09/25 05:36:33;;;;;;;4.87;4.47;;;;;;;13.38;73.73;99682.31;5176783;22;20362;-79
2021/09/25 05:39:25;;;;;;;4.50;4.10;;;;;;;13.54;73.89;99684.25;5076975;28;20173;-80
2021/09/25 05:42:09;;;;;;;5.17;4.70;;;;;;;13.65;73.30;99686.13;5068451;28;20279;-82
2021/09/25 05:44:38;;;;;;;4.80;4.30;;;;;;;13.71;72.63;99677.09;5064750;28;20237;-86
2021/09/25 05:47:07;;;;;;;5.27;4.77;;;;;;;13.79;72.53;99675.88;5058464;28;20319;-81
2021/09/25 05:49:33;;;;;;;5.10;4.70;;;;;;;13.79;71.86;99665.13;5048584;28;20228;-88
2021/09/25 05:52:01;;;;;;;5.30;4.80;;;;;;;13.99;71.62;99684.38;5019395;28;20224;-79
2021/09/25 05:54:28;;;;;;;5.60;4.33;;;;;;;14.13;71.52;99695.69;5015946;28;20317;-88
2021/09/25 05:56:54;;;;;;;4.90;4.40;;;;;;;14.16;70.55;99685.22;5022106;28;20278;-91
2021/09/25 05:59:21;;;;;;;5.27;4.77;;;;;;;14.31;70.96;99688.22;5038568;28;20232;-88
2021/09/25 06:01:49;;;;;;;4.87;4.47;;;;;;;14.40;70.47;99677.88;5022374;28;20231;-90
2021/09/25 06:04:16;;;;;;;4.73;4.13;;;;;;;14.55;70.37;99691.63;5022223;28;20661;-91
2021/09/25 06:06:43;;;;;;;5.80;4.57;;;;;;;14.63;70.05;99680.44;5038485;28;20633;-89
2021/09/25 06:09:10;;;;;;;5.47;4.70;;;;;;;14.73;69.84;99680.59;5035077;28;20234;-91
2021/09/25 06:11:37;;;;;;;4.80;4.40;;;;;;;14.86;69.80;99688.34;4986361;28;20238;-92
2021/09/25 06:14:04;;;;;;;5.30;4.80;;;;;;;14.94;69.52;99679.84;5002355;28;20251;-91
2021/09/25 06:16:30;;;;;;;5.10;4.70;;;;;;;15.06;69.44;99687.84;5019053;28;20239;-91
2021/09/25 06:18:58;;;;;;;5.70;4.93;;;;;;;15.17;68.72;99686.94;5002405;28;20261;-89
2021/09/25 06:21:24;;;;;;;5.40;4.90;;;;;;;15.27;68.41;99688.97;5018923;28;20271;-89
2021/09/25 06:23:51;;;;;;;5.27;4.77;;;;;;;15.41;68.50;99684.84;5018368;28;20228;-88
2021/09/25 06:26:18;;;;;;;5.73;5.23;;;;;;;15.54;67.78;99681.00;5018033;28;20316;-90
2021/09/25 06:28:46;;;;;;;5.13;4.63;;;;;;;15.63;67.67;99674.88;5018517;28;20223;-91
2021/09/25 06:31:14;;;;;;;5.07;4.67;;;;;;;15.75;67.62;99680.19;5002501;28;20237;-91
2021/09/25 06:33:42;;;;;;;4.83;4.37;;;;;;;15.90;67.04;99679.53;5002306;28;20232;-90
2021/09/25 06:36:09;;;;;;;6.07;4.80;;;;;;;15.94;66.61;99667.97;5018276;28;20229;-91
2021/09/25 06:38:35;;;;;;;4.90;4.37;;;;;;;16.13;66.69;99685.47;5001812;28;20660;-90
2021/09/25 06:41:03;;;;;;;5.50;5.00;;;;;;;16.20;66.20;99680.69;5002255;28;20240;-90
2021/09/25 06:43:30;;;;;;;4.90;4.40;;;;;;;16.33;66.53;99689.47;5034937;28;20240;-90
2021/09/25 06:45:56;;;;;;;5.37;4.50;;;;;;;16.43;66.10;99692.25;5018350;28;20284;-91
2021/09/25 06:48:23;;;;;;;5.00;4.50;;;;;;;16.51;65.83;99680.97;5034471;28;20232;-89
2021/09/25 06:50:50;;;;;;;4.60;4.20;;;;;;;16.62;65.61;99675.41;5002588;28;20225;-90
2021/09/25 06:53:17;;;;;;;5.00;4.50;;;;;;;16.78;65.25;99678.25;5026776;28;20300;-88
2021/09/25 06:55:43;;;;;;;4.97;4.57;;;;;;;16.84;65.05;99679.94;5023409;28;20225;-91
2021/09/25 06:58:10;;;;;;;5.13;4.60;;;;;;;16.99;64.83;99680.03;5024319;28;20216;-90
2021/09/25 07:00:38;;;;;;;4.53;4.13;;;;;;;17.13;64.25;99695.56;5022282;28;20229;-90
2021/09/25 07:03:04;;;;;;;4.70;4.10;;;;;;;17.22;63.78;99693.19;5038856;28;20667;-89
2021/09/25 07:05:32;;;;;;;4.30;3.90;;;;;;;17.41;63.57;99690.84;5022460;28;20271;-86
2021/09/25 07:07:58;;;;;;;4.30;4.00;;;;;;;17.51;63.05;99686.31;5038505;28;20237;-86
2021/09/25 07:10:25;;;;;;;4.47;4.07;;;;;;;17.66;63.04;99692.91;5022023;28;20249;-89
2021/09/25 07:12:52;;;;;;;4.43;3.80;;;;;;;17.75;63.21;99700.28;5038271;28;20221;-90
2021/09/25 07:15:19;;;;;;;4.30;3.90;;;;;;;17.81;62.47;99699.22;5038313;28;20230;-89
2021/09/25 07:17:46;;;;;;;4.07;3.77;;;;;;;17.97;62.36;99705.50;5039177;28;20230;-86
2021/09/25 07:20:14;;;;;;;4.47;4.07;;;;;;;18.11;61.86;99700.38;5021555;28;20229;-90
2021/09/25 07:22:43;;;;;;;4.10;3.77;;;;;;;18.26;61.82;99705.84;5022069;28;20309;-89
2021/09/25 07:25:10;;;;;;;5.60;4.60;;;;;;;18.31;61.53;99695.03;5039313;28;20229;-88
2021/09/25 07:27:37;;;;;;;5.00;4.33;;;;;;;18.49;61.18;99713.50;5021205;28;20226;-89
2021/09/25 07:30:08;;;;;;;4.00;3.70;;;;;;;18.61;60.53;99705.97;5021522;28;20230;-84
2021/09/25 07:32:34;;;;;;;3.97;3.60;;;;;;;18.79;60.51;99729.03;5021614;28;20218;-82
2021/09/25 07:35:01;;;;;;;5.47;3.63;;;;;;;18.86;60.07;99714.09;5040763;28;20237;-93
2021/09/25 07:37:28;;;;;;;3.97;3.47;;;;;;;18.97;59.73;99717.63;5036883;28;20230;-91
2021/09/25 07:39:55;;;;;;;4.33;3.20;;;;;;;19.13;58.69;99715.72;5039871;28;20248;-88
2021/09/25 07:42:22;;;;;;;3.87;3.53;;;;;;;19.31;58.11;99720.59;5014190;28;20238;-89
2021/09/25 07:44:49;;;;;;;3.53;3.23;;;;;;;19.38;58.21;99709.41;5020587;28;20226;-91
2021/09/25 07:47:16;;;;;;;3.80;3.50;;;;;;;19.50;57.13;99715.41;5002720;28;20253;-91
2021/09/25 07:49:43;;;;;;;4.10;3.77;;;;;;;19.61;55.52;99717.00;5020273;28;20515;-89
2021/09/25 07:52:10;;;;;;;3.57;3.27;;;;;;;19.78;54.69;99710.13;5003296;28;20805;-89
2021/09/25 07:54:37;;;;;;;4.30;3.90;;;;;;;19.94;53.69;99710.91;5007481;28;20653;-89
2021/09/25 07:57:04;;;;;;;3.73;3.40;;;;;;;20.02;53.51;99715.75;5037346;28;20234;-86
2021/09/25 07:59:31;;;;;;;4.37;3.53;;;;;;;20.13;53.41;99717.34;5029239;28;20526;-89
2021/09/25 08:01:57;;;;;;;3.70;3.40;;;;;;;20.17;53.17;99701.25;5040396;28;20233;-89
2021/09/25 08:04:25;;;;;;;3.77;3.33;;;;;;;20.40;53.11;99713.41;5037955;28;20584;-89
2021/09/25 08:06:51;;;;;;;4.10;3.20;;;;;;;20.50;51.25;99705.16;5023874;28;20222;-87
2021/09/25 08:09:20;;;;;;;3.57;2.83;;;;;;;20.57;51.06;99703.78;5023530;28;20280;-85
2021/09/25 08:11:47;;;;;;;3.20;2.90;;;;;;;20.77;50.34;99708.22;5023348;28;20646;-89
2021/09/25 08:14:14;;;;;;;3.50;3.20;;;;;;;20.83;50.98;99714.47;5039686;28;20229;-88
2021/09/25 08:16:41;;;;;;;3.77;3.40;;;;;;;20.94;49.37;99710.56;5007218;28;20265;-88
2021/09/25 08:19:08;;;;;;;3.53;3.23;;;;;;;21.02;49.17;99702.59;5023000;28;20658;-88
2021/09/25 08:21:35;;;;;;;4.10;3.00;;;;;;;21.09;49.36;99694.06;5023257;28;20261;-89
2021/09/25 08:24:02;;;;;;;4.20;3.20;;;;;;;21.31;48.62;99708.06;5006507;28;20236;-87
2021/09/25 08:26:29;;;;;;;3.70;3.40;;;;;;;21.40;48.63;99708.25;5023723;28;20232;-89
2021/09/25 08:28:55;;;;;;;3.60;2.90;;;;;;;21.50;49.20;99702.69;5022683;28;20338;-88
2021/09/25 08:31:22;;;;;;;3.33;3.13;;;;;;;21.60;48.87;99702.56;5039367;28;20232;-88
2021/09/25 08:33:49;;;;;;;3.27;3.00;;;;;;;21.68;48.39;99703.84;5039742;28;20235;-89
2021/09/25 08:36:16;;;;;;;3.23;2.97;;;;;;;21.80;48.53;99698.78;5022314;28;20240;-87
2021/09/25 08:39:03;;;;;;;4.87;3.37;;;;;;;21.92;48.56;99699.19;5025696;28;20315;-88
2021/09/25 08:41:32;;;;;;;4.93;3.27;;;;;;;22.10;48.36;99703.06;5056784;28;20695;-88
2021/09/25 08:43:59;;;;;;;4.47;3.50;;;;;;;22.19;47.15;99696.66;5023152;28;20239;-86
2021/09/25 08:46:26;;;;;;;3.43;2.83;;;;;;;22.24;47.18;99685.69;5021928;28;20241;-87
2021/09/25 08:48:54;;;;;;;4.13;3.40;;;;;;;22.40;47.15;99689.78;5039179;28;20299;-87
2021/09/25 08:51:20;;;;;;;3.30;3.10;;;;;;;22.50;46.58;99688.84;5022606;28;20651;-86
2021/09/25 08:53:47;;;;;;;4.00;3.30;;;;;;;22.57;47.66;99689.28;5022991;28;20227;-88
2021/09/25 08:56:14;;;;;;;3.43;2.90;;;;;;;22.65;45.66;99683.16;5039308;28;20230;-87
2021/09/25 08:58:41;;;;;;;3.20;2.90;;;;;;;22.72;44.81;99691.78;5039378;28;20312;-88
2021/09/25 09:01:17;;;;;;;3.20;2.77;;;;;;;22.92;44.50;99698.03;5022735;28;20233;-84
2021/09/25 09:03:46;;;;;;;4.60;2.93;;;;;;;23.01;45.57;99696.22;5006602;28;20258;-89
2021/09/25 09:06:20;;;;;;;3.60;3.30;;;;;;;23.09;45.87;99690.91;5021745;28;20232;-86
2021/09/25 09:08:51;;;;;;;3.33;3.13;;;;;;;23.23;45.28;99686.28;5039030;28;20249;-85
2021/09/25 09:11:19;;;;;;;3.75;2.92;;;;;;;23.28;44.68;99690.84;5022425;28;20327;-88
2021/09/25 09:13:48;;;;;;;3.58;3.28;;;;;;;23.41;44.83;99692.78;5022574;28;20233;-87
2021/09/25 09:16:16;;;;;;;3.30;3.10;;;;;;;23.49;44.25;99680.34;5021877;28;20222;-89
2021/09/25 09:18:44;;;;;;;3.40;3.03;;;;;;;23.58;43.57;99689.47;5022474;28;20221;-86
2021/09/25 09:21:14;;;;;;;3.35;3.10;;;;;;;23.70;42.45;99687.84;5038882;28;20260;-87
2021/09/25 09:23:53;;;;;;;4.95;3.10;;;;;;;23.84;42.64;99693.31;5022587;28;20225;-89
2021/09/25 09:26:22;;;;;;;3.60;3.30;;;;;;;23.80;42.62;99680.53;5022036;28;20236;-90
2021/09/25 09:28:51;;;;;;;3.20;2.90;;;;;;;23.91;40.86;99680.03;5022099;28;20242;-89
2021/09/25 09:31:18;;;;;;;3.00;2.80;;;;;;;24.02;40.66;99683.38;5005730;28;20232;-89
2021/09/25 09:33:48;;;;;;;3.00;2.67;;;;;;;24.10;40.99;99685.38;5038611;28;20233;-88
2021/09/25 09:36:38;;;;;;;3.17;2.92;;;;;;;24.17;40.29;99666.63;5021633;28;20572;-91
2021/09/25 09:39:17;;;;;;;2.88;2.67;;;;;;;24.26;40.20;99678.47;5022539;28;20231;-92
2021/09/25 09:41:46;;;;;;;6.60;2.95;;;;;;;24.27;40.64;99658.19;5038827;28;20237;-88
2021/09/25 09:44:21;;;;;;;3.75;2.95;;;;;;;24.37;40.16;99679.84;5055455;28;20239;-88
2021/09/25 09:46:53;;;;;;;2.90;2.70;;;;;;;24.40;39.82;99673.75;5022153;28;20220;-86
2021/09/25 09:49:22;;;;;;;3.30;3.10;;;;;;;24.56;38.23;99685.16;5038406;28;20532;-88
2021/09/25 09:51:58;;;;;;;3.38;3.08;;;;;;;24.59;39.58;99665.34;5005384;28;20647;-88
2021/09/25 09:54:36;;;;;;;3.40;3.10;;;;;;;24.66;38.80;99652.03;5021268;28;20244;-89
2021/09/25 09:57:23;;;;;;;2.95;2.75;;;;;;;24.73;38.09;99640.66;5005364;28;20229;-88
2021/09/25 09:59:50;;;;;;;2.97;2.67;;;;;;;24.87;37.09;99646.91;5005358;28;20266;-88
2021/09/25 10:02:17;;;;;;;4.47;3.00;;;;;;;25.05;36.81;99661.50;5004596;28;20535;-87
2021/09/25 10:04:45;;;;;;;3.22;2.95;;;;;;;25.10;35.79;99651.22;5021489;28;20233;-88
2021/09/25 10:07:12;;;;;;;3.17;2.97;;;;;;;25.17;36.30;99648.03;5038077;28;20650;-87
2021/09/25 10:09:40;;;;;;;3.15;2.85;;;;;;;25.26;35.88;99659.84;5021577;28;20583;-88
2021/09/25 10:12:12;;;;;;;3.50;3.30;;;;;;;25.25;35.29;99648.06;5004538;28;20236;-87
2021/09/25 10:14:41;;;;;;;3.30;3.10;;;;;;;25.42;34.71;99650.88;5038064;28;20227;-87
2021/09/25 10:17:11;;;;;;;3.58;3.00;;;;;;;25.59;34.39;99652.91;5037982;28;20545;-87
2021/09/25 10:19:39;;;;;;;3.05;2.85;;;;;;;25.64;34.16;99657.44;5021118;28;20248;-89
2021/09/25 10:22:25;;;;;;;3.40;2.95;;;;;;;25.75;33.88;99651.34;5037306;28;20236;-91
2021/09/25 10:24:54;;;;;;;3.47;3.28;;;;;;;25.80;33.91;99644.91;5004979;28;20232;-85
2021/09/25 10:27:42;;;;;;;3.45;3.08;;;;;;;25.71;33.59;99639.38;5004204;28;20564;-89
2021/09/25 10:30:10;;;;;;;3.05;2.85;;;;;;;25.76;33.97;99633.72;5004344;28;20629;-89
2021/09/25 10:32:43;;;;;;;3.00;2.80;;;;;;;26.00;34.58;99632.47;5021063;28;20654;-88
2021/09/25 10:35:15;;;;;;;3.03;2.75;;;;;;;26.09;34.63;99634.09;5037323;28;20240;-89
2021/09/25 10:37:51;;;;;;;3.05;2.83;;;;;;;26.19;33.60;99641.22;5030566;28;20534;-89
2021/09/25 10:40:39;;;;;;;2.88;2.67;;;;;;;26.35;33.22;99636.91;5046143;28;20244;-89
2021/09/25 10:43:23;;;;;;;3.17;2.97;;;;;;;26.43;33.51;99632.53;5057463;28;20259;-91
2021/09/25 10:45:58;;;;;;;3.10;2.90;;;;;;;26.55;33.26;99635.44;5041036;28;20284;-89
2021/09/25 10:48:27;;;;;;;3.40;3.10;;;;;;;26.57;32.90;99613.94;5056419;28;20234;-88
2021/09/25 10:51:11;;;;;;;3.55;2.80;;;;;;;26.52;33.45;99623.16;5057308;28;20228;-89
2021/09/25 10:53:43;;;;;;;2.90;2.70;;;;;;;26.70;33.46;99619.25;5025299;28;20235;-90
2021/09/25 10:56:22;;;;;;;3.38;3.08;;;;;;;26.80;32.58;99623.59;5040257;28;20232;-89
2021/09/25 10:58:53;;;;;;;3.10;2.90;;;;;;;26.95;32.57;99625.03;5040750;28;20224;-89
2021/09/25 11:01:30;;;;;;;3.13;2.92;;;;;;;26.96;31.91;99612.91;5040435;28;20586;-88
2021/09/25 11:04:01;;;;;;;3.65;3.30;;;;;;;26.97;31.45;99604.31;5057282;28;20228;-88
2021/09/25 11:06:41;;;;;;;3.28;3.03;;;;;;;26.95;33.23;99616.78;5040982;28;20616;-88
2021/09/25 11:09:28;;;;;;;2.88;2.67;;;;;;;26.91;32.58;99605.66;5056880;28;20266;-88
2021/09/25 11:12:09;;;;;;;3.60;2.83;;;;;;;26.93;31.79;99602.56;5057258;28;20277;-89
2021/09/25 11:14:46;;;;;;;4.20;2.90;;;;;;;27.00;31.34;99602.88;5056975;28;20225;-87
2021/09/25 11:17:19;;;;;;;2.80;2.60;;;;;;;27.14;32.18;99604.28;5040454;28;20309;-87
2021/09/25 11:19:52;;;;;;;3.05;2.85;;;;;;;27.21;32.30;99598.25;5056888;28;20298;-89
2021/09/25 11:22:39;;;;;;;3.00;2.70;;;;;;;27.32;32.11;99595.94;5056598;28;20803;-88
2021/09/25 11:25:12;;;;;;;2.60;2.42;;;;;;;27.38;30.61;99586.38;5040378;28;20241;-88
2021/09/25 11:27:51;;;;;;;3.00;2.80;;;;;;;27.44;31.29;99591.34;5056954;28;20302;-90
2021/09/25 11:30:18;;;;;;;3.88;2.88;;;;;;;27.58;30.84;99604.88;5056693;28;20216;-87
2021/09/25 11:32:50;;;;;;;4.95;2.90;;;;;;;27.51;31.95;99599.91;5056805;28;20687;-87
2021/09/25 11:35:23;;;;;;;3.13;2.70;;;;;;;27.59;30.70;99598.25;5041044;28;20213;-88
2021/09/25 11:37:58;;;;;;;2.92;2.72;;;;;;;27.67;30.32;99599.34;5037205;28;20237;-90
2021/09/25 11:40:28;;;;;;;4.32;3.13;;;;;;;27.62;31.14;99585.78;5040194;28;20663;-90
2021/09/25 11:43:10;;;;;;;3.03;2.83;;;;;;;27.72;31.57;99588.94;5040243;28;20225;-86
2021/09/25 11:45:42;;;;;;;3.08;2.78;;;;;;;27.78;29.99;99584.84;5040841;28;20655;-90
2021/09/25 11:48:12;;;;;;;4.63;2.80;;;;;;;27.89;29.54;99582.50;5039930;28;20264;-86
2021/09/25 11:50:42;;;;;;;3.00;2.70;;;;;;;28.00;30.81;99583.72;5040297;28;20229;-87
2021/09/25 11:53:11;;;;;;;3.42;3.17;;;;;;;27.95;29.63;99578.41;5040197;28;20233;-88
2021/09/25 11:55:38;;;;;;;3.00;2.75;;;;;;;28.09;30.22;99578.16;5040248;28;20264;-88
2021/09/25 11:58:06;;;;;;;3.67;3.00;;;;;;;28.11;30.05;99581.41;5056764;28;20308;-88
2021/09/25 12:00:57;;;;;;;3.20;2.90;;;;;;;28.18;30.10;99581.66;5056202;28;20221;-87
2021/09/25 12:03:39;;;;;;;3.00;2.80;;;;;;;28.23;30.70;99578.72;5045500;28;20234;-90
2021/09/25 12:06:06;;;;;;;2.70;2.50;;;;;;;28.21;30.66;99550.69;5056183;28;20232;-89
2021/09/25 12:08:33;;;;;;;3.08;2.75;;;;;;;28.38;30.63;99556.03;5040001;28;20235;-89
2021/09/25 12:11:05;;;;;;;2.88;2.65;;;;;;;28.53;29.83;99566.41;5056508;28;20547;-88
2021/09/25 12:13:35;;;;;;;3.03;2.83;;;;;;;28.64;30.54;99564.84;5039726;28;20283;-86
2021/09/25 12:16:10;;;;;;;3.78;3.40;;;;;;;28.65;28.91;99549.91;5023668;28;20257;-91
2021/09/25 12:18:38;;;;;;;3.20;2.90;;;;;;;28.64;28.96;99551.06;5056216;28;20617;-90
2021/09/25 12:21:09;;;;;;;3.10;2.80;;;;;;;28.74;29.52;99549.84;5039661;28;20235;-89
2021/09/25 12:23:56;;;;;;;3.28;3.08;;;;;;;28.74;30.35;99553.38;5007172;28;20636;-85
2021/09/25 12:26:25;;;;;;;3.05;2.83;;;;;;;28.76;29.42;99539.28;5039284;28;20233;-91
2021/09/25 12:28:54;;;;;;;3.20;3.00;;;;;;;28.78;29.29;99545.25;5039152;28;20310;-89
2021/09/25 12:31:36;;;;;;;2.85;2.65;;;;;;;28.80;29.28;99545.72;5039497;28;20256;-90
2021/09/25 12:34:10;;;;;;;3.05;2.85;;;;;;;28.87;29.32;99530.22;5039739;28;20297;-90
2021/09/25 12:36:39;;;;;;;2.97;2.70;;;;;;;28.86;29.69;99547.09;5056303;28;20225;-89